Terminal Aerodrome Forecast
Issued by NWS

Home | Current Version | Previous Version | Text Only | Print | Product List | Glossary On
Versions: 1 2 3 4 5 6 7 8 9 10 11 12 13 14 15 16
000
FTAK31 PAJN 242334
TAFAWG
TAF
PAWG 242334Z 2500/2524 12006KT P6SM VCSH FEW010 BKN035 OVC050
      TEMPO 2500/2503 VRB04KT 5SM -SHRA BR FEW008 BKN025 OVC035
     FM250600 VRB03KT P6SM VCSH FEW010 OVC035
      TEMPO 2509/2513 00000KT 3SM BR BKN005
      AMD LTD TO CLD VIS AND WIND 2506/2515=

USA.gov is the U.S. government's official web portal to all federal, state and local government web resources and services.